aviador You're here:

YGLA Decoded Metar

in
Report Time2017-09-20 12:30:00
UTC Time2017-09-20 12:44:37
Flight Rules vfr VFR
WindCalm
Visibility9999 m
Phenomena:N/A
Clouds:N/A
Expected CloudBase > 1,200 ft AGL from Temp-Dew spread
CeilingNone
Temp20°C
Dew Point17°C (83% RH)
QNH1017 hPa
Raw Report
METAR YGLA 201230Z AUTO 00000KT 9999 // NCD 20/17 Q1017
RF00.0/000.0=

Extra information for YGLA:More info

Social comments